createdAt,value
2019-03-29T00:00:04.379Z,4.31
2019-03-29T00:00:33.833Z,4.31
2019-03-29T00:01:04.895Z,4.31
2019-03-29T00:01:34.205Z,4.31
2019-03-29T00:02:05.541Z,4.25
2019-03-29T00:02:36.996Z,4.31
2019-03-29T00:03:04.249Z,4.31
2019-03-29T00:03:34.307Z,4.31
2019-03-29T00:04:04.339Z,4.31
2019-03-29T00:04:33.793Z,4.31
2019-03-29T00:05:04.788Z,4.31
2019-03-29T00:05:33.810Z,4.25
2019-03-29T00:06:04.505Z,4.25
2019-03-29T00:06:34.126Z,4.19
2019-03-29T00:07:04.700Z,4.19
2019-03-29T00:07:39.715Z,4.19
2019-03-29T00:08:04.436Z,4.12
2019-03-29T00:08:35.411Z,4.12
2019-03-29T00:09:04.358Z,4.06
2019-03-29T00:09:33.934Z,4.06
2019-03-29T00:10:05.123Z,4.06
2019-03-29T00:10:34.042Z,4.06
2019-03-29T00:11:04.532Z,4.19
2019-03-29T00:11:34.059Z,4.19
2019-03-29T00:12:05.735Z,4.19
2019-03-29T00:12:34.399Z,4.19
2019-03-29T00:13:07.352Z,4.12
2019-03-29T00:13:34.194Z,4.12
2019-03-29T00:14:04.860Z,4.12
2019-03-29T00:14:34.150Z,4.12
2019-03-29T00:15:04.751Z,4.12
2019-03-29T00:15:34.321Z,4.12
2019-03-29T00:16:06.140Z,4.12
2019-03-29T00:16:34.107Z,4.12
2019-03-29T00:17:05.083Z,4.12
2019-03-29T00:17:34.450Z,4.12
2019-03-29T00:18:04.969Z,4.12
2019-03-29T00:18:34.159Z,4.12
2019-03-29T00:19:04.503Z,4.12
2019-03-29T00:19:35.577Z,4.12
2019-03-29T00:20:06.244Z,4.12
2019-03-29T00:20:34.211Z,4.12
2019-03-29T00:21:04.787Z,4.19
2019-03-29T00:21:34.500Z,4.19
2019-03-29T00:22:05.062Z,4.19
2019-03-29T00:22:34.217Z,4.19
2019-03-29T00:23:04.605Z,4.25
2019-03-29T00:23:37.239Z,4.37
2019-03-29T00:24:06.819Z,4.37
2019-03-29T00:24:34.149Z,4.31
2019-03-29T00:25:05.181Z,4.31
2019-03-29T00:25:34.605Z,4.25
2019-03-29T00:26:05.093Z,4.25
2019-03-29T00:26:34.195Z,4.31
2019-03-29T00:27:07.979Z,4.25
2019-03-29T00:27:34.384Z,4.25
2019-03-29T00:28:04.800Z,4.25
2019-03-29T00:28:34.450Z,4.25
2019-03-29T00:29:06.021Z,4.19
2019-03-29T00:29:35.061Z,4.19
2019-03-29T00:30:05.991Z,4.19
2019-03-29T00:30:34.485Z,4.19
2019-03-29T00:31:05.050Z,4.19
2019-03-29T00:31:34.605Z,4.25
2019-03-29T00:32:05.922Z,4.19
2019-03-29T00:32:34.589Z,4.19
2019-03-29T00:33:05.496Z,4.19
2019-03-29T00:33:34.408Z,4.19
2019-03-29T00:34:04.877Z,4.19
2019-03-29T00:34:34.529Z,4.25
2019-03-29T00:35:07.870Z,4.25
2019-03-29T00:35:34.742Z,4.37
2019-03-29T00:36:05.038Z,4.62
2019-03-29T00:36:36.740Z,4.81
2019-03-29T00:37:06.330Z,4.75
2019-03-29T00:37:34.971Z,4.81
2019-03-29T00:38:05.620Z,4.87
2019-03-29T00:38:34.609Z,4.81
2019-03-29T00:39:05.234Z,4.69
2019-03-29T00:39:34.463Z,4.69
2019-03-29T00:40:05.220Z,4.62
2019-03-29T00:40:35.856Z,4.56
2019-03-29T00:41:04.974Z,4.56
2019-03-29T00:41:34.630Z,4.44
2019-03-29T00:42:05.013Z,4.44
2019-03-29T00:42:34.809Z,4.37
2019-03-29T00:43:05.139Z,4.44
2019-03-29T00:43:34.941Z,4.37
2019-03-29T00:44:04.976Z,4.37
2019-03-29T00:44:36.275Z,4.44
2019-03-29T00:45:05.489Z,4.44
2019-03-29T00:45:35.243Z,4.44
2019-03-29T00:46:05.366Z,4.56
2019-03-29T00:46:35.191Z,4.56
2019-03-29T00:47:05.147Z,4.81
2019-03-29T00:47:34.796Z,4.81
2019-03-29T00:48:07.618Z,4.94
2019-03-29T00:48:35.695Z,4.87
2019-03-29T00:49:04.989Z,4.81
2019-03-29T00:49:34.756Z,4.81
2019-03-29T00:50:06.306Z,4.87
2019-03-29T00:50:34.798Z,4.94
2019-03-29T00:51:05.439Z,5.12
2019-03-29T00:51:34.772Z,5.06
2019-03-29T00:52:05.770Z,5.06
2019-03-29T00:52:35.110Z,5
2019-03-29T00:53:05.295Z,4.94
2019-03-29T00:53:35.908Z,4.87
2019-03-29T00:54:06.434Z,5
2019-03-29T00:54:34.885Z,5.06
2019-03-29T00:55:05.447Z,4.94
2019-03-29T00:55:34.963Z,4.87
2019-03-29T00:56:05.588Z,4.81
2019-03-29T00:56:35.010Z,4.75
2019-03-29T00:57:06.031Z,4.62
2019-03-29T00:57:35.766Z,4.56
2019-03-29T00:58:05.675Z,4.56
2019-03-29T00:58:34.918Z,4.5
2019-03-29T00:59:05.296Z,4.5
2019-03-29T00:59:35.298Z,4.44
2019-03-29T01:00:06.967Z,4.37
2019-03-29T01:00:35.272Z,4.31
2019-03-29T01:01:05.741Z,4.31
2019-03-29T01:01:36.537Z,4.31
2019-03-29T01:02:05.731Z,4.25
2019-03-29T01:02:35.464Z,4.25
2019-03-29T01:03:05.647Z,4.25
2019-03-29T01:03:35.361Z,4.19
2019-03-29T01:04:05.600Z,4.19
2019-03-29T01:04:35.175Z,4.19
2019-03-29T01:05:07.213Z,4.12
2019-03-29T01:05:35.169Z,4.12
2019-03-29T01:06:05.748Z,4.12
2019-03-29T01:06:35.205Z,4.06
2019-03-29T01:07:06.166Z,3.94
2019-03-29T01:07:35.549Z,3.87
2019-03-29T01:08:07.952Z,3.87
2019-03-29T01:08:37.975Z,3.75
2019-03-29T01:09:08.369Z,3.69
2019-03-29T01:09:35.002Z,3.69
2019-03-29T01:10:06.272Z,3.69
2019-03-29T01:10:35.035Z,3.69
2019-03-29T01:11:06.161Z,3.69
2019-03-29T01:11:35.732Z,3.75
2019-03-29T01:12:06.953Z,3.75
2019-03-29T01:12:37.994Z,3.75
2019-03-29T01:13:05.761Z,3.75
2019-03-29T01:13:35.483Z,3.75
2019-03-29T01:14:05.694Z,3.75
2019-03-29T01:14:36.518Z,3.75
2019-03-29T01:15:06.158Z,3.75
2019-03-29T01:15:35.932Z,3.75
2019-03-29T01:16:05.926Z,3.75
2019-03-29T01:16:36.346Z,3.69
2019-03-29T01:17:05.953Z,3.69
2019-03-29T01:17:35.351Z,3.62
2019-03-29T01:18:05.624Z,3.62
2019-03-29T01:18:35.530Z,3.62
2019-03-29T01:19:05.795Z,3.62
2019-03-29T01:19:35.639Z,3.62
2019-03-29T01:20:06.088Z,3.62
2019-03-29T01:20:35.553Z,3.69
2019-03-29T01:21:06.378Z,3.69
2019-03-29T01:21:35.478Z,3.69
2019-03-29T01:22:07.629Z,3.69
2019-03-29T01:22:36.034Z,3.69
2019-03-29T01:23:06.059Z,3.69
2019-03-29T01:23:35.677Z,3.69
2019-03-29T01:24:05.747Z,3.69
2019-03-29T01:24:35.452Z,3.75
2019-03-29T01:25:07.969Z,3.75
2019-03-29T01:25:35.461Z,3.75
2019-03-29T01:26:06.849Z,3.81
2019-03-29T01:26:35.618Z,3.81
2019-03-29T01:27:06.036Z,3.81
2019-03-29T01:27:35.579Z,3.81
2019-03-29T01:28:06.139Z,3.81
2019-03-29T01:28:35.777Z,3.69
2019-03-29T01:29:06.408Z,3.69
2019-03-29T01:29:38.449Z,3.62
2019-03-29T01:30:08.132Z,3.62
2019-03-29T01:30:37.867Z,3.62
2019-03-29T01:31:06.126Z,3.62
2019-03-29T01:31:35.562Z,3.62
2019-03-29T01:32:07.093Z,3.56
2019-03-29T01:32:35.721Z,3.56
2019-03-29T01:33:06.072Z,3.56
2019-03-29T01:33:37.898Z,3.56
2019-03-29T01:34:06.288Z,3.56
2019-03-29T01:34:35.762Z,3.56
2019-03-29T01:35:06.373Z,3.56
2019-03-29T01:35:36.082Z,3.5
2019-03-29T01:36:06.260Z,3.44
2019-03-29T01:36:35.975Z,3.37
2019-03-29T01:37:06.433Z,3.31
2019-03-29T01:37:37.991Z,3.31
2019-03-29T01:38:06.553Z,3.25
2019-03-29T01:38:36.075Z,3.25
2019-03-29T01:39:06.303Z,3.25
2019-03-29T01:39:36.182Z,3.19
2019-03-29T01:40:06.651Z,3.25
2019-03-29T01:40:35.779Z,3.25
2019-03-29T01:41:06.402Z,3.25
2019-03-29T01:41:35.738Z,3.25
2019-03-29T01:42:08.709Z,3.19
2019-03-29T01:42:36.133Z,3.12
2019-03-29T01:43:06.690Z,3.06
2019-03-29T01:43:36.002Z,3.12
2019-03-29T01:44:06.247Z,3.12
2019-03-29T01:44:35.914Z,3.12
2019-03-29T01:45:07.214Z,3.12
2019-03-29T01:45:36.255Z,3.12
2019-03-29T01:46:06.162Z,3.12
2019-03-29T01:46:36.097Z,3.12
2019-03-29T01:47:07.367Z,3.12
2019-03-29T01:47:36.010Z,3.12
2019-03-29T01:48:06.612Z,3.12
2019-03-29T01:48:35.898Z,3.12
2019-03-29T01:49:06.246Z,3.19
2019-03-29T01:49:36.115Z,3.12
2019-03-29T01:50:07.907Z,3.12
2019-03-29T01:50:36.697Z,3.12
2019-03-29T01:51:06.489Z,3.12
2019-03-29T01:51:36.125Z,3.06
2019-03-29T01:52:06.317Z,3.06
2019-03-29T01:52:36.860Z,3.12
2019-03-29T01:53:06.813Z,3.12
2019-03-29T01:53:36.154Z,3.12
2019-03-29T01:54:06.566Z,3.12
2019-03-29T01:54:37.891Z,3.19
2019-03-29T01:55:06.750Z,3.19
2019-03-29T01:55:36.189Z,3.19
2019-03-29T01:56:06.472Z,3.25
2019-03-29T01:56:36.532Z,3.19
2019-03-29T01:57:06.967Z,3.19
2019-03-29T01:57:36.161Z,3.19
2019-03-29T01:58:09.150Z,3.25
2019-03-29T01:58:36.009Z,3.25
2019-03-29T01:59:06.669Z,3.31
2019-03-29T01:59:36.232Z,3.25
2019-03-29T02:00:09.013Z,3.31
2019-03-29T02:00:36.530Z,3.31
2019-03-29T02:01:07.246Z,3.37
2019-03-29T02:01:36.370Z,3.37
2019-03-29T02:02:09.878Z,3.37
2019-03-29T02:02:36.175Z,3.31
2019-03-29T02:03:06.609Z,3.31
2019-03-29T02:03:36.558Z,3.25
2019-03-29T02:04:08.035Z,3.25
2019-03-29T02:04:36.714Z,3.25
2019-03-29T02:05:06.987Z,3.25
2019-03-29T02:05:39.493Z,3.25
2019-03-29T02:06:08.626Z,3.25
2019-03-29T02:06:36.464Z,3.25
2019-03-29T02:07:06.842Z,3.25
2019-03-29T02:07:37.978Z,3.25
2019-03-29T02:08:07.108Z,3.31
2019-03-29T02:08:37.796Z,3.31
2019-03-29T02:09:06.920Z,3.31
2019-03-29T02:09:36.206Z,3.37
2019-03-29T02:10:07.047Z,3.37
2019-03-29T02:10:36.610Z,3.44
2019-03-29T02:11:06.924Z,3.37
2019-03-29T02:11:36.573Z,3.37
2019-03-29T02:12:07.062Z,3.37
2019-03-29T02:12:36.481Z,3.37
2019-03-29T02:13:06.633Z,3.37
2019-03-29T02:13:36.369Z,3.37
2019-03-29T02:14:06.793Z,3.37
2019-03-29T02:14:36.477Z,3.37
2019-03-29T02:15:09.013Z,3.37
2019-03-29T02:15:37.183Z,3.37
2019-03-29T02:16:06.793Z,3.37
2019-03-29T02:16:36.773Z,3.37
2019-03-29T02:17:08.755Z,3.31
2019-03-29T02:17:36.666Z,3.31
2019-03-29T02:18:07.089Z,3.31
2019-03-29T02:18:36.454Z,3.31
2019-03-29T02:19:08.176Z,3.31
2019-03-29T02:19:36.659Z,3.31
2019-03-29T02:20:07.217Z,3.25
2019-03-29T02:20:36.600Z,3.19
2019-03-29T02:21:07.147Z,3.19
2019-03-29T02:21:36.643Z,3.25
2019-03-29T02:22:07.490Z,3.25
2019-03-29T02:22:39.440Z,3.25
2019-03-29T02:23:08.662Z,3.25
2019-03-29T02:23:36.710Z,3.19
2019-03-29T02:24:07.256Z,3.12
2019-03-29T02:24:36.660Z,3.12
2019-03-29T02:25:07.400Z,3.12
2019-03-29T02:25:36.623Z,3.06
2019-03-29T02:26:08.199Z,3.06
2019-03-29T02:26:38.203Z,3
2019-03-29T02:27:07.237Z,3
2019-03-29T02:27:37.020Z,3
2019-03-29T02:28:09.851Z,3
2019-03-29T02:28:37.104Z,3
2019-03-29T02:29:07.267Z,3
2019-03-29T02:29:36.944Z,3
2019-03-29T02:30:07.741Z,3.06
2019-03-29T02:30:37.945Z,3
2019-03-29T02:31:07.167Z,3
2019-03-29T02:31:36.725Z,3
2019-03-29T02:32:07.076Z,2.94
2019-03-29T02:32:37.151Z,2.94
2019-03-29T02:33:07.243Z,2.94
2019-03-29T02:33:36.887Z,2.94
2019-03-29T02:34:10.269Z,2.94
2019-03-29T02:34:36.750Z,2.94
2019-03-29T02:35:07.527Z,2.94
2019-03-29T02:35:38.376Z,2.94
2019-03-29T02:36:07.655Z,3
2019-03-29T02:36:36.938Z,3
2019-03-29T02:37:07.219Z,2.94
2019-03-29T02:37:37.100Z,3
2019-03-29T02:38:07.626Z,3
2019-03-29T02:38:54.014Z,3
2019-03-29T02:39:07.270Z,3
2019-03-29T02:39:39.219Z,3
2019-03-29T02:40:08.455Z,2.94
2019-03-29T02:40:36.891Z,2.94
2019-03-29T02:41:07.494Z,2.87
2019-03-29T02:41:37.032Z,2.87
2019-03-29T02:42:07.502Z,2.87
2019-03-29T02:42:37.180Z,2.87
2019-03-29T02:43:07.542Z,2.87
2019-03-29T02:43:38.614Z,2.87
2019-03-29T02:44:07.657Z,2.87
2019-03-29T02:44:37.233Z,2.87
2019-03-29T02:45:07.669Z,2.87
2019-03-29T02:45:37.073Z,2.94
2019-03-29T02:46:07.371Z,2.94
2019-03-29T02:46:37.020Z,3.06
2019-03-29T02:47:07.735Z,3.19
2019-03-29T02:47:38.512Z,3.19
2019-03-29T02:48:07.328Z,3.25
2019-03-29T02:48:36.978Z,3.25
2019-03-29T02:49:07.288Z,3.19
2019-03-29T02:49:37.294Z,3.12
2019-03-29T02:50:09.064Z,3.12
2019-03-29T02:50:37.223Z,3.12
2019-03-29T02:51:09.614Z,3.06
2019-03-29T02:51:37.191Z,3.06
2019-03-29T02:52:07.730Z,3.12
2019-03-29T02:52:37.291Z,3.12
2019-03-29T02:53:07.790Z,3.12
2019-03-29T02:53:37.416Z,3.12
2019-03-29T02:54:07.747Z,3.12
2019-03-29T02:54:37.471Z,3.12
2019-03-29T02:55:10.047Z,3.12
2019-03-29T02:55:37.315Z,3.06
2019-03-29T02:56:07.458Z,3.06
2019-03-29T02:56:37.255Z,3.06
2019-03-29T02:57:07.967Z,3.06
2019-03-29T02:57:37.188Z,3.06
2019-03-29T02:58:07.900Z,3.06
2019-03-29T02:58:39.524Z,3.12
2019-03-29T02:59:07.691Z,3.12
2019-03-29T02:59:37.321Z,3.12
2019-03-29T03:00:08.010Z,3.19
2019-03-29T03:00:37.977Z,3.19
2019-03-29T03:01:09.645Z,3.25
2019-03-29T03:01:39.658Z,3.25
2019-03-29T03:02:07.820Z,3.19
2019-03-29T03:02:40.215Z,3.19
2019-03-29T03:03:07.697Z,3.12
2019-03-29T03:03:37.637Z,3.12
2019-03-29T03:04:07.737Z,3.12
2019-03-29T03:04:37.578Z,3.12
2019-03-29T03:05:08.120Z,3.12
2019-03-29T03:05:37.611Z,3.06
2019-03-29T03:06:10.295Z,3.06
2019-03-29T03:06:37.419Z,3
2019-03-29T03:07:07.763Z,3
2019-03-29T03:07:37.563Z,3
2019-03-29T03:08:09.342Z,3
2019-03-29T03:08:37.787Z,2.94
2019-03-29T03:09:13.554Z,2.94
2019-03-29T03:09:37.559Z,2.87
2019-03-29T03:10:08.314Z,2.94
2019-03-29T03:10:37.512Z,2.94
2019-03-29T03:11:07.919Z,2.87
2019-03-29T03:11:37.603Z,2.87
2019-03-29T03:12:09.020Z,2.81
2019-03-29T03:12:38.903Z,2.81
2019-03-29T03:13:08.809Z,2.81
2019-03-29T03:13:37.766Z,2.81
2019-03-29T03:14:07.855Z,2.81
2019-03-29T03:14:37.924Z,2.81
2019-03-29T03:15:08.139Z,2.81
2019-03-29T03:15:39.791Z,2.75
2019-03-29T03:16:09.380Z,2.75
2019-03-29T03:16:37.894Z,2.81
2019-03-29T03:17:07.952Z,2.81
2019-03-29T03:17:37.852Z,2.87
2019-03-29T03:18:08.056Z,2.87
2019-03-29T03:18:38.004Z,2.94
2019-03-29T03:19:08.486Z,3
2019-03-29T03:19:38.848Z,3
2019-03-29T03:20:08.358Z,2.94
2019-03-29T03:20:38.029Z,2.94
2019-03-29T03:21:08.236Z,2.87
2019-03-29T03:21:37.927Z,2.94
2019-03-29T03:22:08.276Z,2.94
2019-03-29T03:22:37.931Z,2.94
2019-03-29T03:23:08.382Z,3
2019-03-29T03:23:39.434Z,3
2019-03-29T03:24:10.645Z,3
2019-03-29T03:24:38.186Z,2.94
2019-03-29T03:25:08.772Z,2.94
2019-03-29T03:25:38.184Z,3
2019-03-29T03:26:08.643Z,3
2019-03-29T03:26:38.169Z,3
2019-03-29T03:27:10.860Z,3
2019-03-29T03:27:38.147Z,3
2019-03-29T03:28:08.472Z,3
2019-03-29T03:28:38.014Z,3
2019-03-29T03:29:08.550Z,2.94
2019-03-29T03:29:38.201Z,2.94
2019-03-29T03:30:09.218Z,2.87
2019-03-29T03:30:38.281Z,2.87
2019-03-29T03:31:08.701Z,2.87
2019-03-29T03:31:38.051Z,2.81
2019-03-29T03:32:08.298Z,2.81
2019-03-29T03:32:38.223Z,2.81
2019-03-29T03:33:09.133Z,2.81
2019-03-29T03:33:38.269Z,2.81
2019-03-29T03:34:08.648Z,2.75
2019-03-29T03:34:38.366Z,2.81
2019-03-29T03:35:08.590Z,2.81
2019-03-29T03:35:38.496Z,2.75
2019-03-29T03:36:09.592Z,2.75
2019-03-29T03:36:38.519Z,2.75
2019-03-29T03:37:08.533Z,2.75
2019-03-29T03:37:38.558Z,2.75
2019-03-29T03:38:08.642Z,2.75
2019-03-29T03:38:38.508Z,2.75
2019-03-29T03:39:08.657Z,2.69
2019-03-29T03:39:38.457Z,2.75
2019-03-29T03:40:08.883Z,2.69
2019-03-29T03:40:39.341Z,2.69
2019-03-29T03:41:08.910Z,2.69
2019-03-29T03:41:38.440Z,2.69
2019-03-29T03:42:08.529Z,2.69
2019-03-29T03:42:38.495Z,2.69
2019-03-29T03:43:08.783Z,2.69
2019-03-29T03:43:38.506Z,2.69
2019-03-29T03:44:10.610Z,2.69
2019-03-29T03:44:38.612Z,2.69
2019-03-29T03:45:09.275Z,2.75
2019-03-29T03:45:38.645Z,2.75
2019-03-29T03:46:09.601Z,2.75
2019-03-29T03:46:38.582Z,2.75
2019-03-29T03:47:09.364Z,2.75
2019-03-29T03:47:39.364Z,2.75
2019-03-29T03:48:11.134Z,2.75
2019-03-29T03:48:38.488Z,2.75
2019-03-29T03:49:08.883Z,2.81
2019-03-29T03:49:38.600Z,2.81
2019-03-29T03:50:09.919Z,2.87
2019-03-29T03:50:38.546Z,2.87
2019-03-29T03:51:08.802Z,2.87
2019-03-29T03:51:40.403Z,2.81
2019-03-29T03:52:08.876Z,2.87
2019-03-29T03:52:38.619Z,2.81
2019-03-29T03:53:08.531Z,2.81
2019-03-29T03:53:38.651Z,2.81
2019-03-29T03:54:09.069Z,2.81
2019-03-29T03:54:38.750Z,2.75
2019-03-29T03:55:09.039Z,2.69
2019-03-29T03:55:41.471Z,2.75
2019-03-29T03:56:09.052Z,2.75
2019-03-29T03:56:38.764Z,2.75
2019-03-29T03:57:08.676Z,2.75
2019-03-29T03:57:38.804Z,2.75
2019-03-29T03:58:09.201Z,2.75
2019-03-29T03:58:38.688Z,2.69
2019-03-29T03:59:13.358Z,2.75
2019-03-29T03:59:38.822Z,2.75
2019-03-29T04:00:11.434Z,2.69
2019-03-29T04:00:39.101Z,2.75
2019-03-29T04:01:10.529Z,2.75
2019-03-29T04:01:38.910Z,2.75
2019-03-29T04:02:09.079Z,2.75
2019-03-29T04:02:38.921Z,2.75
2019-03-29T04:03:08.842Z,2.69
2019-03-29T04:03:38.768Z,2.69
2019-03-29T04:04:09.829Z,2.75
2019-03-29T04:04:39.031Z,2.69
2019-03-29T04:05:10.521Z,2.69
2019-03-29T04:05:39.018Z,2.69
2019-03-29T04:06:08.916Z,2.69
2019-03-29T04:06:39.079Z,2.69
2019-03-29T04:07:09.044Z,2.75
2019-03-29T04:07:39.043Z,2.81
2019-03-29T04:08:09.235Z,2.81
2019-03-29T04:08:40.752Z,2.87
2019-03-29T04:09:10.318Z,2.94
2019-03-29T04:09:48.920Z,2.94
2019-03-29T04:10:12.258Z,2.94
2019-03-29T04:10:42.128Z,2.87
2019-03-29T04:11:09.423Z,2.87
2019-03-29T04:11:38.922Z,2.81
2019-03-29T04:12:08.999Z,2.81
2019-03-29T04:12:40.358Z,2.75
2019-03-29T04:13:09.259Z,2.75
2019-03-29T04:13:39.200Z,2.69
2019-03-29T04:14:09.290Z,2.69
2019-03-29T04:14:39.157Z,2.62
2019-03-29T04:15:09.223Z,2.56
2019-03-29T04:15:39.191Z,2.56
2019-03-29T04:16:09.190Z,2.5
2019-03-29T04:16:40.296Z,2.5
2019-03-29T04:17:09.258Z,2.5
2019-03-29T04:17:39.318Z,2.5
2019-03-29T04:18:09.080Z,2.5
2019-03-29T04:18:39.174Z,2.5
2019-03-29T04:19:09.257Z,2.56
2019-03-29T04:19:39.158Z,2.56
2019-03-29T04:20:11.615Z,2.62
2019-03-29T04:20:40.317Z,2.62
2019-03-29T04:21:10.328Z,2.62
2019-03-29T04:21:39.097Z,2.62
2019-03-29T04:22:09.731Z,2.62
2019-03-29T04:22:39.564Z,2.62
2019-03-29T04:23:09.530Z,2.56
2019-03-29T04:23:39.336Z,2.56
2019-03-29T04:24:12.025Z,2.5
2019-03-29T04:24:39.236Z,2.5
2019-03-29T04:25:09.634Z,2.56
2019-03-29T04:25:39.501Z,2.56
2019-03-29T04:26:10.049Z,2.56
2019-03-29T04:26:39.333Z,2.5
2019-03-29T04:27:09.674Z,2.5
2019-03-29T04:27:39.503Z,2.5
2019-03-29T04:28:09.705Z,2.56
2019-03-29T04:28:39.416Z,2.62
2019-03-29T04:29:09.735Z,2.62
2019-03-29T04:29:39.737Z,2.62
2019-03-29T04:30:10.137Z,2.62
2019-03-29T04:30:39.380Z,2.62
2019-03-29T04:31:09.625Z,2.62
2019-03-29T04:31:39.882Z,2.62
2019-03-29T04:32:09.781Z,2.62
2019-03-29T04:32:39.610Z,2.56
2019-03-29T04:33:11.157Z,2.56
2019-03-29T04:33:40.238Z,2.56
2019-03-29T04:34:09.633Z,2.5
2019-03-29T04:34:39.469Z,2.5
2019-03-29T04:35:09.705Z,2.44
2019-03-29T04:35:39.561Z,2.5
2019-03-29T04:36:09.767Z,2.56
2019-03-29T04:36:39.537Z,2.62
2019-03-29T04:37:11.021Z,2.62
2019-03-29T04:37:39.566Z,2.69
2019-03-29T04:38:09.709Z,2.69
2019-03-29T04:38:39.708Z,2.69
2019-03-29T04:39:10.190Z,2.62
2019-03-29T04:39:39.680Z,2.62
2019-03-29T04:40:10.713Z,2.62
2019-03-29T04:40:39.867Z,2.62
2019-03-29T04:41:11.648Z,2.56
2019-03-29T04:41:39.750Z,2.56
2019-03-29T04:42:09.729Z,2.56
2019-03-29T04:42:43.058Z,2.5
2019-03-29T04:43:09.882Z,2.5
2019-03-29T04:43:39.685Z,2.5
2019-03-29T04:44:09.712Z,2.5
2019-03-29T04:44:40.935Z,2.5
2019-03-29T04:45:10.091Z,2.44
2019-03-29T04:45:39.736Z,2.44
2019-03-29T04:46:09.980Z,2.44
2019-03-29T04:46:40.068Z,2.44
2019-03-29T04:47:10.126Z,2.44
2019-03-29T04:47:39.860Z,2.37
2019-03-29T04:48:09.814Z,2.37
2019-03-29T04:48:42.376Z,2.37
2019-03-29T04:49:10.113Z,2.31
2019-03-29T04:49:39.990Z,2.31
2019-03-29T04:50:10.334Z,2.31
2019-03-29T04:50:40.304Z,2.37
2019-03-29T04:51:10.368Z,2.37
2019-03-29T04:51:39.870Z,2.37
2019-03-29T04:52:10.826Z,2.37
2019-03-29T04:52:39.961Z,2.31
2019-03-29T04:53:09.826Z,2.31
2019-03-29T04:53:42.738Z,2.31
2019-03-29T04:54:11.929Z,2.31
2019-03-29T04:54:40.057Z,2.31
2019-03-29T04:55:10.096Z,2.31
2019-03-29T04:55:39.993Z,2.37
2019-03-29T04:56:10.037Z,2.37
2019-03-29T04:56:40.143Z,2.37
2019-03-29T04:57:10.117Z,2.31
2019-03-29T04:57:39.940Z,2.31
2019-03-29T04:58:10.889Z,2.31
2019-03-29T04:58:40.014Z,2.31
2019-03-29T04:59:10.324Z,2.31
2019-03-29T04:59:40.087Z,2.37
2019-03-29T05:00:10.295Z,2.37
2019-03-29T05:00:40.207Z,2.37
2019-03-29T05:01:10.241Z,2.37
2019-03-29T05:01:42.000Z,2.37
2019-03-29T05:02:11.221Z,2.37
2019-03-29T05:02:40.271Z,2.44
2019-03-29T05:03:10.141Z,2.44
2019-03-29T05:03:40.267Z,2.44
2019-03-29T05:04:10.458Z,2.44
2019-03-29T05:04:40.262Z,2.5
2019-03-29T05:05:12.565Z,2.5
2019-03-29T05:05:41.388Z,2.56
2019-03-29T05:06:10.297Z,2.56
2019-03-29T05:06:40.329Z,2.56
2019-03-29T05:07:10.224Z,2.56
2019-03-29T05:07:40.289Z,2.56
2019-03-29T05:08:10.319Z,2.56
2019-03-29T05:08:40.374Z,2.56
2019-03-29T05:09:10.436Z,2.56
2019-03-29T05:09:42.326Z,2.56
2019-03-29T05:10:20.793Z,2.56
2019-03-29T05:10:40.450Z,2.56
2019-03-29T05:11:10.459Z,2.56
2019-03-29T05:11:40.290Z,2.56
2019-03-29T05:12:10.591Z,2.62
2019-03-29T05:12:40.397Z,2.62
2019-03-29T05:13:13.603Z,2.69
2019-03-29T05:13:40.482Z,2.75
2019-03-29T05:14:10.694Z,2.81
2019-03-29T05:14:40.493Z,2.87
2019-03-29T05:15:11.567Z,2.87
2019-03-29T05:15:40.551Z,2.94
2019-03-29T05:16:12.995Z,2.87
2019-03-29T05:16:40.650Z,2.87
2019-03-29T05:17:10.693Z,2.81
2019-03-29T05:17:40.834Z,2.81
2019-03-29T05:18:10.717Z,2.75
2019-03-29T05:18:40.653Z,2.75
2019-03-29T05:19:11.545Z,2.69
2019-03-29T05:19:40.456Z,2.69
2019-03-29T05:20:10.905Z,2.69
2019-03-29T05:20:40.675Z,2.69
2019-03-29T05:21:10.759Z,2.69
2019-03-29T05:21:40.670Z,2.62
2019-03-29T05:22:10.500Z,2.62
2019-03-29T05:22:41.244Z,2.62
2019-03-29T05:23:10.763Z,2.62
2019-03-29T05:23:40.874Z,2.62
2019-03-29T05:24:10.945Z,2.56
2019-03-29T05:24:40.702Z,2.56
2019-03-29T05:25:10.841Z,2.56
2019-03-29T05:25:40.853Z,2.62
2019-03-29T05:26:10.534Z,2.62
2019-03-29T05:26:41.397Z,2.62
2019-03-29T05:27:11.069Z,2.69
2019-03-29T05:27:40.719Z,2.69
2019-03-29T05:28:10.631Z,2.75
2019-03-29T05:28:40.780Z,2.75
2019-03-29T05:29:11.036Z,2.75
2019-03-29T05:29:40.782Z,2.75
2019-03-29T05:30:12.713Z,2.81
2019-03-29T05:30:40.850Z,2.81
2019-03-29T05:31:10.847Z,2.81
2019-03-29T05:31:40.886Z,2.87
2019-03-29T05:32:11.469Z,2.87
2019-03-29T05:32:41.089Z,2.87
2019-03-29T05:33:10.697Z,2.87
2019-03-29T05:33:40.927Z,2.87
2019-03-29T05:34:13.257Z,2.94
2019-03-29T05:34:40.906Z,2.94
2019-03-29T05:35:11.273Z,2.94
2019-03-29T05:35:41.034Z,2.87
2019-03-29T05:36:11.046Z,2.87
2019-03-29T05:36:41.070Z,2.87
2019-03-29T05:37:10.982Z,2.87
2019-03-29T05:37:42.729Z,2.87
2019-03-29T05:38:11.139Z,2.87
2019-03-29T05:38:43.697Z,2.87
2019-03-29T05:39:11.133Z,2.87
2019-03-29T05:39:41.613Z,2.94
2019-03-29T05:40:11.626Z,2.94
2019-03-29T05:40:41.085Z,2.94
2019-03-29T05:41:11.288Z,3
2019-03-29T05:41:41.113Z,3
2019-03-29T05:42:11.093Z,3.06
2019-03-29T05:42:41.408Z,3.06
2019-03-29T05:43:11.065Z,3.06
2019-03-29T05:43:41.327Z,3.12
2019-03-29T05:44:11.224Z,3.12
2019-03-29T05:44:41.093Z,3.12
2019-03-29T05:45:11.144Z,3.12
2019-03-29T05:45:41.296Z,3.12
2019-03-29T05:46:11.231Z,3.12
2019-03-29T05:46:41.073Z,3.19
2019-03-29T05:47:13.080Z,3.19
2019-03-29T05:47:41.357Z,3.19
2019-03-29T05:48:11.127Z,3.25
2019-03-29T05:48:41.353Z,3.25
2019-03-29T05:49:11.294Z,3.31
2019-03-29T05:49:41.423Z,3.31
2019-03-29T05:50:11.430Z,3.31
2019-03-29T05:50:43.050Z,3.31
2019-03-29T05:51:12.466Z,3.37
2019-03-29T05:51:41.392Z,3.44
2019-03-29T05:52:11.323Z,3.44
2019-03-29T05:52:41.380Z,3.44
2019-03-29T05:53:11.344Z,3.5
2019-03-29T05:53:41.630Z,3.5
2019-03-29T05:54:11.569Z,3.5
2019-03-29T05:54:44.325Z,3.56
2019-03-29T05:55:13.275Z,3.56
2019-03-29T05:55:41.494Z,3.56
2019-03-29T05:56:11.332Z,3.56
2019-03-29T05:56:41.505Z,3.56
2019-03-29T05:57:11.835Z,3.56
2019-03-29T05:57:41.313Z,3.56
2019-03-29T05:58:11.620Z,3.56
2019-03-29T05:58:42.881Z,3.56
2019-03-29T05:59:11.344Z,3.56
2019-03-29T05:59:41.553Z,3.62
2019-03-29T06:00:12.108Z,3.69
2019-03-29T06:00:41.520Z,3.75
2019-03-29T06:01:11.432Z,3.75
2019-03-29T06:01:41.832Z,3.81
2019-03-29T06:02:11.418Z,3.81
2019-03-29T06:02:43.808Z,3.87
2019-03-29T06:03:11.869Z,3.87
2019-03-29T06:03:41.512Z,3.94
2019-03-29T06:04:11.577Z,3.94
2019-03-29T06:04:41.643Z,4
2019-03-29T06:05:11.725Z,4
2019-03-29T06:05:41.575Z,4
2019-03-29T06:06:13.595Z,4.06
2019-03-29T06:06:41.340Z,4.06
2019-03-29T06:07:11.578Z,4.06
2019-03-29T06:07:41.618Z,4.06
2019-03-29T06:08:11.518Z,4.06
2019-03-29T06:08:41.682Z,4.12
2019-03-29T06:09:11.535Z,4.12
2019-03-29T06:09:41.566Z,4.19
2019-03-29T06:10:12.033Z,4.19
2019-03-29T06:10:48.591Z,4.25
2019-03-29T06:11:11.569Z,4.25
2019-03-29T06:11:41.776Z,4.25
2019-03-29T06:12:12.041Z,4.31
2019-03-29T06:12:43.882Z,4.31
2019-03-29T06:13:11.677Z,4.31
2019-03-29T06:13:42.105Z,4.37
2019-03-29T06:14:11.864Z,4.5
2019-03-29T06:14:41.770Z,4.69
2019-03-29T06:15:11.973Z,4.69
2019-03-29T06:15:41.821Z,4.69
2019-03-29T06:16:11.794Z,4.69
2019-03-29T06:16:41.775Z,4.75
2019-03-29T06:17:11.919Z,4.75
2019-03-29T06:17:48.254Z,4.87
2019-03-29T06:18:11.922Z,5
2019-03-29T06:18:41.693Z,5
2019-03-29T06:19:11.765Z,5
2019-03-29T06:19:43.202Z,5.25
2019-03-29T06:20:11.863Z,5.37
2019-03-29T06:20:41.632Z,5.37
2019-03-29T06:21:11.823Z,5.31
2019-03-29T06:21:41.652Z,5.31
2019-03-29T06:22:11.909Z,5.31
2019-03-29T06:22:41.980Z,5.31
2019-03-29T06:23:14.305Z,5.25
2019-03-29T06:23:41.744Z,5.25
2019-03-29T06:24:11.832Z,5.19
2019-03-29T06:24:41.892Z,5.19
2019-03-29T06:25:12.623Z,5.19
2019-03-29T06:25:41.930Z,5.19
2019-03-29T06:26:11.891Z,5.19
2019-03-29T06:26:41.868Z,5.19
2019-03-29T06:27:13.618Z,5.19
2019-03-29T06:27:42.422Z,5.19
2019-03-29T06:28:12.551Z,5.19
2019-03-29T06:28:41.947Z,5.19
2019-03-29T06:29:12.117Z,5.12
2019-03-29T06:29:41.965Z,5.12
2019-03-29T06:30:12.241Z,5.19
2019-03-29T06:30:44.108Z,5.25
2019-03-29T06:31:12.235Z,5.19
2019-03-29T06:31:42.157Z,5.25
2019-03-29T06:32:12.066Z,5.25
2019-03-29T06:32:42.580Z,5.25
2019-03-29T06:33:12.322Z,5.37
2019-03-29T06:33:44.468Z,5.44
2019-03-29T06:34:13.820Z,5.44
2019-03-29T06:34:44.915Z,5.5
2019-03-29T06:35:12.390Z,5.56
2019-03-29T06:35:42.150Z,5.5
2019-03-29T06:36:12.158Z,5.5
2019-03-29T06:36:42.437Z,5.5
2019-03-29T06:37:12.149Z,5.5
2019-03-29T06:37:42.192Z,5.44
2019-03-29T06:38:14.388Z,5.44
2019-03-29T06:38:42.345Z,5.37
2019-03-29T06:39:12.446Z,5.37
2019-03-29T06:39:42.132Z,5.31
2019-03-29T06:40:14.133Z,5.31
2019-03-29T06:40:42.621Z,5.31
2019-03-29T06:41:12.290Z,5.25
2019-03-29T06:41:42.216Z,5.25